sensor_id;sensor_type;location;lat;lon;timestamp;temperature;humidity
46378;DHT22;32083;47.360;9.650;2022-10-17T00:01:05;13.10;99.90
46378;DHT22;32083;47.360;9.650;2022-10-17T00:04:42;13.00;99.90
46378;DHT22;32083;47.360;9.650;2022-10-17T00:08:16;12.90;99.90
46378;DHT22;32083;47.360;9.650;2022-10-17T00:16:41;12.90;99.90
46378;DHT22;32083;47.360;9.650;2022-10-17T00:20:21;12.90;99.90
46378;DHT22;32083;47.360;9.650;2022-10-17T00:26:23;12.90;99.90
46378;DHT22;32083;47.360;9.650;2022-10-17T00:29:58;12.90;99.90
46378;DHT22;32083;47.360;9.650;2022-10-17T00:33:28;12.80;99.90
46378;DHT22;32083;47.360;9.650;2022-10-17T00:42:26;12.70;99.90
46378;DHT22;32083;47.360;9.650;2022-10-17T00:45:44;12.70;99.90
46378;DHT22;32083;47.360;9.650;2022-10-17T01:11:52;12.40;99.90
46378;DHT22;32083;47.360;9.650;2022-10-17T01:33:16;12.30;99.90
46378;DHT22;32083;47.360;9.650;2022-10-17T01:40:12;12.20;99.90
46378;DHT22;32083;47.360;9.650;2022-10-17T01:46:38;12.20;99.90
46378;DHT22;32083;47.360;9.650;2022-10-17T01:52:46;12.10;99.90
46378;DHT22;32083;47.360;9.650;2022-10-17T01:55:37;12.00;99.90
46378;DHT22;32083;47.360;9.650;2022-10-17T01:59:16;12.00;99.90
46378;DHT22;32083;47.360;9.650;2022-10-17T02:04:46;11.90;99.90
46378;DHT22;32083;47.360;9.650;2022-10-17T02:07:35;11.90;99.90
46378;DHT22;32083;47.360;9.650;2022-10-17T02:11:00;12.00;99.90
46378;DHT22;32083;47.360;9.650;2022-10-17T02:26:37;12.00;99.90
46378;DHT22;32083;47.360;9.650;2022-10-17T02:29:57;11.90;99.90
46378;DHT22;32083;47.360;9.650;2022-10-17T02:33:28;11.90;99.90
46378;DHT22;32083;47.360;9.650;2022-10-17T02:36:59;11.90;99.90
46378;DHT22;32083;47.360;9.650;2022-10-17T02:40:12;11.80;99.90
46378;DHT22;32083;47.360;9.650;2022-10-17T02:45:48;11.70;99.90
46378;DHT22;32083;47.360;9.650;2022-10-17T02:59:20;11.70;99.90
46378;DHT22;32083;47.360;9.650;2022-10-17T03:01:49;11.70;99.90
46378;DHT22;32083;47.360;9.650;2022-10-17T03:13:18;11.50;99.90
46378;DHT22;32083;47.360;9.650;2022-10-17T03:16:46;11.50;99.90
46378;DHT22;32083;47.360;9.650;2022-10-17T03:19:57;11.50;99.90
46378;DHT22;32083;47.360;9.650;2022-10-17T03:25:17;11.50;99.90
46378;DHT22;32083;47.360;9.650;2022-10-17T03:28:36;11.50;99.90
46378;DHT22;32083;47.360;9.650;2022-10-17T03:31:37;11.50;99.90
46378;DHT22;32083;47.360;9.650;2022-10-17T03:39:44;11.40;99.90
46378;DHT22;32083;47.360;9.650;2022-10-17T03:46:28;11.30;99.90
46378;DHT22;32083;47.360;9.650;2022-10-17T04:03:31;11.40;99.90
46378;DHT22;32083;47.360;9.650;2022-10-17T04:06:02;11.40;99.90
46378;DHT22;32083;47.360;9.650;2022-10-17T04:08:29;11.40;99.90
46378;DHT22;32083;47.360;9.650;2022-10-17T04:11:02;11.30;99.90
46378;DHT22;32083;47.360;9.650;2022-10-17T04:13:29;11.30;99.90
46378;DHT22;32083;47.360;9.650;2022-10-17T04:16:01;11.20;99.90
46378;DHT22;32083;47.360;9.650;2022-10-17T04:18:27;11.20;99.90
46378;DHT22;32083;47.360;9.650;2022-10-17T04:20:53;11.20;99.90
46378;DHT22;32083;47.360;9.650;2022-10-17T04:23:19;11.20;99.90
46378;DHT22;32083;47.360;9.650;2022-10-17T04:25:46;11.10;99.90
46378;DHT22;32083;47.360;9.650;2022-10-17T04:28:12;11.10;99.90
46378;DHT22;32083;47.360;9.650;2022-10-17T04:30:37;11.10;99.90
46378;DHT22;32083;47.360;9.650;2022-10-17T04:33:04;11.10;99.90
46378;DHT22;32083;47.360;9.650;2022-10-17T04:35:30;11.10;99.90
46378;DHT22;32083;47.360;9.650;2022-10-17T04:37:56;11.10;99.90
46378;DHT22;32083;47.360;9.650;2022-10-17T04:40:23;11.10;99.90
46378;DHT22;32083;47.360;9.650;2022-10-17T04:42:49;11.00;99.90
46378;DHT22;32083;47.360;9.650;2022-10-17T04:45:15;11.00;99.90
46378;DHT22;32083;47.360;9.650;2022-10-17T04:47:41;11.10;99.90
46378;DHT22;32083;47.360;9.650;2022-10-17T04:50:07;11.10;99.90
46378;DHT22;32083;47.360;9.650;2022-10-17T04:52:34;11.10;99.90
46378;DHT22;32083;47.360;9.650;2022-10-17T04:55:04;11.00;99.90
46378;DHT22;32083;47.360;9.650;2022-10-17T04:57:34;11.00;99.90
46378;DHT22;32083;47.360;9.650;2022-10-17T05:00:00;11.00;99.90
46378;DHT22;32083;47.360;9.650;2022-10-17T05:02:26;10.90;99.90
46378;DHT22;32083;47.360;9.650;2022-10-17T05:04:52;10.90;99.90
46378;DHT22;32083;47.360;9.650;2022-10-17T05:07:18;10.80;99.90
46378;DHT22;32083;47.360;9.650;2022-10-17T05:09:44;10.80;99.90
46378;DHT22;32083;47.360;9.650;2022-10-17T05:12:10;10.80;99.90
46378;DHT22;32083;47.360;9.650;2022-10-17T05:14:36;10.90;99.90
46378;DHT22;32083;47.360;9.650;2022-10-17T05:17:02;10.80;99.90
46378;DHT22;32083;47.360;9.650;2022-10-17T05:19:28;10.80;99.90
46378;DHT22;32083;47.360;9.650;2022-10-17T05:21:54;10.80;99.90
46378;DHT22;32083;47.360;9.650;2022-10-17T05:24:20;10.80;99.90
46378;DHT22;32083;47.360;9.650;2022-10-17T05:26:49;10.80;99.90
46378;DHT22;32083;47.360;9.650;2022-10-17T05:29:15;10.70;99.90
46378;DHT22;32083;47.360;9.650;2022-10-17T05:31:41;10.70;99.90
46378;DHT22;32083;47.360;9.650;2022-10-17T05:34:07;10.60;99.90
46378;DHT22;32083;47.360;9.650;2022-10-17T05:36:33;10.50;99.90
46378;DHT22;32083;47.360;9.650;2022-10-17T05:38:59;10.50;99.90
46378;DHT22;32083;47.360;9.650;2022-10-17T05:41:25;10.50;99.90
46378;DHT22;32083;47.360;9.650;2022-10-17T05:43:51;10.50;99.90
46378;DHT22;32083;47.360;9.650;2022-10-17T05:46:17;10.50;99.90
46378;DHT22;32083;47.360;9.650;2022-10-17T05:48:43;10.50;99.90
46378;DHT22;32083;47.360;9.650;2022-10-17T05:51:10;10.50;99.90
46378;DHT22;32083;47.360;9.650;2022-10-17T05:53:38;10.50;99.90
46378;DHT22;32083;47.360;9.650;2022-10-17T05:56:07;10.50;99.90
46378;DHT22;32083;47.360;9.650;2022-10-17T05:58:33;10.50;99.90
46378;DHT22;32083;47.360;9.650;2022-10-17T06:01:01;10.40;99.90
46378;DHT22;32083;47.360;9.650;2022-10-17T06:03:28;10.40;99.90
46378;DHT22;32083;47.360;9.650;2022-10-17T06:05:54;10.40;99.90
46378;DHT22;32083;47.360;9.650;2022-10-17T06:08:21;10.40;99.90
46378;DHT22;32083;47.360;9.650;2022-10-17T06:10:50;10.40;99.90
46378;DHT22;32083;47.360;9.650;2022-10-17T06:13:17;10.40;99.90
46378;DHT22;32083;47.360;9.650;2022-10-17T06:15:43;10.30;99.90
46378;DHT22;32083;47.360;9.650;2022-10-17T06:18:10;10.40;99.90
46378;DHT22;32083;47.360;9.650;2022-10-17T06:20:36;10.40;99.90
46378;DHT22;32083;47.360;9.650;2022-10-17T06:23:02;10.40;99.90
46378;DHT22;32083;47.360;9.650;2022-10-17T06:25:32;10.40;99.90
46378;DHT22;32083;47.360;9.650;2022-10-17T06:27:58;10.40;99.90
46378;DHT22;32083;47.360;9.650;2022-10-17T06:30:24;10.40;99.90
46378;DHT22;32083;47.360;9.650;2022-10-17T06:32:51;10.50;99.90
46378;DHT22;32083;47.360;9.650;2022-10-17T06:35:18;10.50;99.90
46378;DHT22;32083;47.360;9.650;2022-10-17T06:37:44;10.40;99.90
46378;DHT22;32083;47.360;9.650;2022-10-17T06:40:10;10.40;99.90
46378;DHT22;32083;47.360;9.650;2022-10-17T06:42:37;10.40;99.90
46378;DHT22;32083;47.360;9.650;2022-10-17T06:45:04;10.40;99.90
46378;DHT22;32083;47.360;9.650;2022-10-17T06:47:30;10.40;99.90
46378;DHT22;32083;47.360;9.650;2022-10-17T06:49:56;10.40;99.90
46378;DHT22;32083;47.360;9.650;2022-10-17T06:52:22;10.40;99.90
46378;DHT22;32083;47.360;9.650;2022-10-17T06:54:48;10.40;99.90
46378;DHT22;32083;47.360;9.650;2022-10-17T06:57:16;10.40;99.90
46378;DHT22;32083;47.360;9.650;2022-10-17T06:59:42;10.40;99.90
46378;DHT22;32083;47.360;9.650;2022-10-17T07:02:09;10.40;99.90
46378;DHT22;32083;47.360;9.650;2022-10-17T07:04:36;10.50;99.90
46378;DHT22;32083;47.360;9.650;2022-10-17T07:07:02;10.60;99.90
46378;DHT22;32083;47.360;9.650;2022-10-17T07:09:29;10.80;99.90
46378;DHT22;32083;47.360;9.650;2022-10-17T07:11:55;11.00;99.90
46378;DHT22;32083;47.360;9.650;2022-10-17T07:14:22;11.20;99.90
46378;DHT22;32083;47.360;9.650;2022-10-17T07:16:48;11.40;99.90
46378;DHT22;32083;47.360;9.650;2022-10-17T07:19:14;11.50;99.90
46378;DHT22;32083;47.360;9.650;2022-10-17T07:21:40;11.60;99.90
46378;DHT22;32083;47.360;9.650;2022-10-17T07:24:06;11.90;99.90
46378;DHT22;32083;47.360;9.650;2022-10-17T07:26:32;12.10;99.90
46378;DHT22;32083;47.360;9.650;2022-10-17T07:28:59;12.40;99.90
46378;DHT22;32083;47.360;9.650;2022-10-17T07:31:26;12.60;99.90
46378;DHT22;32083;47.360;9.650;2022-10-17T07:33:51;12.80;99.90
46378;DHT22;32083;47.360;9.650;2022-10-17T07:36:18;13.10;99.90
46378;DHT22;32083;47.360;9.650;2022-10-17T07:38:44;13.20;99.90
46378;DHT22;32083;47.360;9.650;2022-10-17T07:41:11;13.50;99.90
46378;DHT22;32083;47.360;9.650;2022-10-17T07:43:38;13.60;99.90
46378;DHT22;32083;47.360;9.650;2022-10-17T07:46:06;13.80;99.90
46378;DHT22;32083;47.360;9.650;2022-10-17T07:48:33;13.90;99.90
46378;DHT22;32083;47.360;9.650;2022-10-17T07:51:04;13.90;99.90
46378;DHT22;32083;47.360;9.650;2022-10-17T07:53:31;14.00;99.90
46378;DHT22;32083;47.360;9.650;2022-10-17T07:55:57;14.10;99.90
46378;DHT22;32083;47.360;9.650;2022-10-17T07:58:23;14.10;99.90
46378;DHT22;32083;47.360;9.650;2022-10-17T08:00:50;14.20;99.90
46378;DHT22;32083;47.360;9.650;2022-10-17T08:03:16;14.30;99.90
46378;DHT22;32083;47.360;9.650;2022-10-17T08:05:42;14.30;99.90
46378;DHT22;32083;47.360;9.650;2022-10-17T08:08:08;14.40;99.90
46378;DHT22;32083;47.360;9.650;2022-10-17T08:10:34;14.50;99.90
46378;DHT22;32083;47.360;9.650;2022-10-17T08:13:01;14.60;99.90
46378;DHT22;32083;47.360;9.650;2022-10-17T08:15:27;14.70;99.90
46378;DHT22;32083;47.360;9.650;2022-10-17T08:17:53;14.70;99.90
46378;DHT22;32083;47.360;9.650;2022-10-17T08:20:20;14.80;99.90
46378;DHT22;32083;47.360;9.650;2022-10-17T08:22:53;14.90;99.90
46378;DHT22;32083;47.360;9.650;2022-10-17T08:25:19;15.00;99.90
46378;DHT22;32083;47.360;9.650;2022-10-17T08:27:45;15.10;99.90
46378;DHT22;32083;47.360;9.650;2022-10-17T08:30:11;15.20;99.90
46378;DHT22;32083;47.360;9.650;2022-10-17T08:32:37;15.20;99.70
46378;DHT22;32083;47.360;9.650;2022-10-17T08:35:03;15.30;99.30
46378;DHT22;32083;47.360;9.650;2022-10-17T08:37:29;15.40;99.40
46378;DHT22;32083;47.360;9.650;2022-10-17T08:39:56;15.50;99.90
46378;DHT22;32083;47.360;9.650;2022-10-17T08:45:19;15.60;98.90
46378;DHT22;32083;47.360;9.650;2022-10-17T08:47:52;15.60;98.70
46378;DHT22;32083;47.360;9.650;2022-10-17T08:50:48;15.60;98.50
46378;DHT22;32083;47.360;9.650;2022-10-17T08:53:35;15.60;98.50
46378;DHT22;32083;47.360;9.650;2022-10-17T08:56:12;15.70;98.40
46378;DHT22;32083;47.360;9.650;2022-10-17T08:58:40;15.80;96.50
46378;DHT22;32083;47.360;9.650;2022-10-17T09:04:18;15.90;96.90
46378;DHT22;32083;47.360;9.650;2022-10-17T09:12:46;16.10;98.00
46378;DHT22;32083;47.360;9.650;2022-10-17T09:20:33;16.30;97.30
46378;DHT22;32083;47.360;9.650;2022-10-17T09:23:24;16.40;97.20
46378;DHT22;32083;47.360;9.650;2022-10-17T09:25:54;16.50;98.00
46378;DHT22;32083;47.360;9.650;2022-10-17T09:28:25;16.60;97.20
46378;DHT22;32083;47.360;9.650;2022-10-17T09:33:45;16.60;96.70
46378;DHT22;32083;47.360;9.650;2022-10-17T09:36:33;16.60;98.00
46378;DHT22;32083;47.360;9.650;2022-10-17T09:39:22;16.70;98.20
46378;DHT22;32083;47.360;9.650;2022-10-17T09:41:54;16.80;99.00
46378;DHT22;32083;47.360;9.650;2022-10-17T09:49:45;17.00;97.60
46378;DHT22;32083;47.360;9.650;2022-10-17T09:55:19;17.10;97.40
46378;DHT22;32083;47.360;9.650;2022-10-17T09:57:56;17.10;97.00
46378;DHT22;32083;47.360;9.650;2022-10-17T10:00:34;17.20;97.20
46378;DHT22;32083;47.360;9.650;2022-10-17T10:03:30;17.20;97.70
46378;DHT22;32083;47.360;9.650;2022-10-17T10:06:19;17.30;97.70
46378;DHT22;32083;47.360;9.650;2022-10-17T10:08:56;17.30;98.40
46378;DHT22;32083;47.360;9.650;2022-10-17T10:11:49;17.40;98.10
46378;DHT22;32083;47.360;9.650;2022-10-17T10:14:28;17.40;98.80
46378;DHT22;32083;47.360;9.650;2022-10-17T10:16:55;17.40;98.00
46378;DHT22;32083;47.360;9.650;2022-10-17T10:21:56;17.40;97.90
46378;DHT22;32083;47.360;9.650;2022-10-17T10:24:23;17.50;98.50
46378;DHT22;32083;47.360;9.650;2022-10-17T10:26:50;17.60;98.60
46378;DHT22;32083;47.360;9.650;2022-10-17T10:32:20;17.70;98.30
46378;DHT22;32083;47.360;9.650;2022-10-17T10:37:38;17.80;98.40
46378;DHT22;32083;47.360;9.650;2022-10-17T10:40:18;17.80;98.80
46378;DHT22;32083;47.360;9.650;2022-10-17T10:42:56;17.80;98.00
46378;DHT22;32083;47.360;9.650;2022-10-17T10:45:27;17.80;98.30
46378;DHT22;32083;47.360;9.650;2022-10-17T10:47:57;17.80;98.30
46378;DHT22;32083;47.360;9.650;2022-10-17T10:50:42;17.90;98.40
46378;DHT22;32083;47.360;9.650;2022-10-17T11:06:54;18.10;98.80
46378;DHT22;32083;47.360;9.650;2022-10-17T11:12:38;18.20;98.80
46378;DHT22;32083;47.360;9.650;2022-10-17T11:17:59;18.30;97.90
46378;DHT22;32083;47.360;9.650;2022-10-17T11:20:32;18.20;97.50
46378;DHT22;32083;47.360;9.650;2022-10-17T11:26:07;18.20;96.60
46378;DHT22;32083;47.360;9.650;2022-10-17T11:28:35;18.20;97.40
46378;DHT22;32083;47.360;9.650;2022-10-17T11:31:08;18.20;97.00
46378;DHT22;32083;47.360;9.650;2022-10-17T11:33:51;18.30;97.20
46378;DHT22;32083;47.360;9.650;2022-10-17T11:36:21;18.40;96.50
46378;DHT22;32083;47.360;9.650;2022-10-17T11:38:56;18.40;95.40
46378;DHT22;32083;47.360;9.650;2022-10-17T11:44:31;18.50;95.80
46378;DHT22;32083;47.360;9.650;2022-10-17T11:49:52;18.50;95.60
46378;DHT22;32083;47.360;9.650;2022-10-17T11:55:26;18.70;95.30
46378;DHT22;32083;47.360;9.650;2022-10-17T12:11:58;18.80;95.70
46378;DHT22;32083;47.360;9.650;2022-10-17T12:14:43;19.00;95.20
46378;DHT22;32083;47.360;9.650;2022-10-17T12:17:36;19.00;95.50
46378;DHT22;32083;47.360;9.650;2022-10-17T12:25:33;19.20;94.50
46378;DHT22;32083;47.360;9.650;2022-10-17T12:30:32;19.20;94.10
46378;DHT22;32083;47.360;9.650;2022-10-17T12:33:24;19.30;93.90
46378;DHT22;32083;47.360;9.650;2022-10-17T12:38:46;19.40;93.90
46378;DHT22;32083;47.360;9.650;2022-10-17T12:41:13;19.40;94.10
46378;DHT22;32083;47.360;9.650;2022-10-17T12:43:50;19.50;94.40
46378;DHT22;32083;47.360;9.650;2022-10-17T12:46:51;19.50;93.70
46378;DHT22;32083;47.360;9.650;2022-10-17T12:54:45;19.60;93.90
46378;DHT22;32083;47.360;9.650;2022-10-17T12:57:29;19.60;94.40
46378;DHT22;32083;47.360;9.650;2022-10-17T12:59:56;19.60;94.00
46378;DHT22;32083;47.360;9.650;2022-10-17T13:02:25;19.70;94.50
46378;DHT22;32083;47.360;9.650;2022-10-17T13:05:06;19.80;93.40
46378;DHT22;32083;47.360;9.650;2022-10-17T13:07:34;19.80;93.30
46378;DHT22;32083;47.360;9.650;2022-10-17T13:10:01;19.90;93.60
46378;DHT22;32083;47.360;9.650;2022-10-17T13:12:32;20.00;94.10
46378;DHT22;32083;47.360;9.650;2022-10-17T13:15:03;20.00;93.10
46378;DHT22;32083;47.360;9.650;2022-10-17T13:17:31;20.00;93.30
46378;DHT22;32083;47.360;9.650;2022-10-17T13:19:57;20.00;93.50
46378;DHT22;32083;47.360;9.650;2022-10-17T13:22:26;20.10;93.20
46378;DHT22;32083;47.360;9.650;2022-10-17T13:25:22;20.10;92.80
46378;DHT22;32083;47.360;9.650;2022-10-17T13:27:50;20.10;93.00
46378;DHT22;32083;47.360;9.650;2022-10-17T13:30:22;20.10;93.50
46378;DHT22;32083;47.360;9.650;2022-10-17T13:32:49;20.20;94.20
46378;DHT22;32083;47.360;9.650;2022-10-17T13:35:21;20.20;94.10
46378;DHT22;32083;47.360;9.650;2022-10-17T13:37:49;20.20;94.10
46378;DHT22;32083;47.360;9.650;2022-10-17T13:40:27;20.30;94.40
46378;DHT22;32083;47.360;9.650;2022-10-17T13:42:55;20.40;94.30
46378;DHT22;32083;47.360;9.650;2022-10-17T13:47:51;20.50;94.40
46378;DHT22;32083;47.360;9.650;2022-10-17T13:50:42;20.50;94.60
46378;DHT22;32083;47.360;9.650;2022-10-17T13:56:04;20.60;94.60
46378;DHT22;32083;47.360;9.650;2022-10-17T13:58:42;20.70;94.20
46378;DHT22;32083;47.360;9.650;2022-10-17T14:01:09;20.70;94.00
46378;DHT22;32083;47.360;9.650;2022-10-17T14:03:36;20.70;94.20
46378;DHT22;32083;47.360;9.650;2022-10-17T14:06:21;20.60;93.90
46378;DHT22;32083;47.360;9.650;2022-10-17T14:11:37;20.70;94.20
46378;DHT22;32083;47.360;9.650;2022-10-17T14:14:06;20.70;94.10
46378;DHT22;32083;47.360;9.650;2022-10-17T14:16:36;20.60;93.80
46378;DHT22;32083;47.360;9.650;2022-10-17T14:19:04;20.60;94.10
46378;DHT22;32083;47.360;9.650;2022-10-17T14:21:31;20.50;94.40
46378;DHT22;32083;47.360;9.650;2022-10-17T14:24:25;20.50;94.70
46378;DHT22;32083;47.360;9.650;2022-10-17T14:26:53;20.50;95.00
46378;DHT22;32083;47.360;9.650;2022-10-17T14:29:28;20.50;95.10
46378;DHT22;32083;47.360;9.650;2022-10-17T14:32:11;20.40;94.60
46378;DHT22;32083;47.360;9.650;2022-10-17T14:34:39;20.50;94.90
46378;DHT22;32083;47.360;9.650;2022-10-17T14:37:26;20.40;95.00
46378;DHT22;32083;47.360;9.650;2022-10-17T14:39:53;20.40;95.00
46378;DHT22;32083;47.360;9.650;2022-10-17T14:42:22;20.40;95.00
46378;DHT22;32083;47.360;9.650;2022-10-17T14:44:49;20.40;94.90
46378;DHT22;32083;47.360;9.650;2022-10-17T14:47:21;20.40;94.40
46378;DHT22;32083;47.360;9.650;2022-10-17T14:50:01;20.40;94.30
46378;DHT22;32083;47.360;9.650;2022-10-17T14:52:29;20.30;94.20
46378;DHT22;32083;47.360;9.650;2022-10-17T14:54:56;20.30;94.20
46378;DHT22;32083;47.360;9.650;2022-10-17T14:57:38;20.30;93.70
46378;DHT22;32083;47.360;9.650;2022-10-17T15:00:05;20.30;93.70
46378;DHT22;32083;47.360;9.650;2022-10-17T15:02:32;20.20;93.80
46378;DHT22;32083;47.360;9.650;2022-10-17T15:04:58;20.20;94.20
46378;DHT22;32083;47.360;9.650;2022-10-17T15:07:24;20.20;94.50
46378;DHT22;32083;47.360;9.650;2022-10-17T15:09:51;20.20;94.60
46378;DHT22;32083;47.360;9.650;2022-10-17T15:12:19;20.10;94.90
46378;DHT22;32083;47.360;9.650;2022-10-17T15:14:46;20.10;94.90
46378;DHT22;32083;47.360;9.650;2022-10-17T15:17:27;20.10;95.20
46378;DHT22;32083;47.360;9.650;2022-10-17T15:19:55;20.10;95.30
46378;DHT22;32083;47.360;9.650;2022-10-17T15:22:22;20.10;95.50
46378;DHT22;32083;47.360;9.650;2022-10-17T15:24:48;20.00;95.70
46378;DHT22;32083;47.360;9.650;2022-10-17T15:27:19;20.10;95.80
46378;DHT22;32083;47.360;9.650;2022-10-17T15:29:46;20.00;95.90
46378;DHT22;32083;47.360;9.650;2022-10-17T15:32:13;20.00;95.70
46378;DHT22;32083;47.360;9.650;2022-10-17T15:34:39;20.10;96.00
46378;DHT22;32083;47.360;9.650;2022-10-17T15:37:06;20.00;95.90
46378;DHT22;32083;47.360;9.650;2022-10-17T15:39:39;20.00;95.80
46378;DHT22;32083;47.360;9.650;2022-10-17T15:42:09;20.00;95.60
46378;DHT22;32083;47.360;9.650;2022-10-17T15:44:36;20.00;95.70
46378;DHT22;32083;47.360;9.650;2022-10-17T15:47:02;19.90;96.00
46378;DHT22;32083;47.360;9.650;2022-10-17T15:49:28;19.90;96.40
46378;DHT22;32083;47.360;9.650;2022-10-17T15:51:54;19.90;96.40
46378;DHT22;32083;47.360;9.650;2022-10-17T15:54:20;19.90;96.30
46378;DHT22;32083;47.360;9.650;2022-10-17T15:56:52;19.90;96.30
46378;DHT22;32083;47.360;9.650;2022-10-17T15:59:21;19.90;96.30
46378;DHT22;32083;47.360;9.650;2022-10-17T16:01:47;19.80;96.50
46378;DHT22;32083;47.360;9.650;2022-10-17T16:04:13;19.80;96.60
46378;DHT22;32083;47.360;9.650;2022-10-17T16:06:43;19.80;96.70
46378;DHT22;32083;47.360;9.650;2022-10-17T16:09:09;19.70;96.60
46378;DHT22;32083;47.360;9.650;2022-10-17T16:11:38;19.70;96.60
46378;DHT22;32083;47.360;9.650;2022-10-17T16:14:07;19.60;96.50
46378;DHT22;32083;47.360;9.650;2022-10-17T16:16:34;19.50;96.90
46378;DHT22;32083;47.360;9.650;2022-10-17T16:19:00;19.50;96.90
46378;DHT22;32083;47.360;9.650;2022-10-17T16:21:29;19.40;96.90
46378;DHT22;32083;47.360;9.650;2022-10-17T16:23:56;19.30;96.90
46378;DHT22;32083;47.360;9.650;2022-10-17T16:26:22;19.20;97.40
46378;DHT22;32083;47.360;9.650;2022-10-17T16:28:48;19.10;97.50
46378;DHT22;32083;47.360;9.650;2022-10-17T16:34:13;19.00;97.70
46378;DHT22;32083;47.360;9.650;2022-10-17T16:36:40;18.90;98.30
46378;DHT22;32083;47.360;9.650;2022-10-17T16:39:06;18.80;98.40
46378;DHT22;32083;47.360;9.650;2022-10-17T16:41:35;18.70;98.80
46378;DHT22;32083;47.360;9.650;2022-10-17T16:44:04;18.60;98.80
46378;DHT22;32083;47.360;9.650;2022-10-17T16:46:31;18.60;98.70
46378;DHT22;32083;47.360;9.650;2022-10-17T16:48:58;18.50;98.90
46378;DHT22;32083;47.360;9.650;2022-10-17T16:51:24;18.40;99.20
46378;DHT22;32083;47.360;9.650;2022-10-17T16:53:51;18.30;99.20
46378;DHT22;32083;47.360;9.650;2022-10-17T16:56:23;18.20;99.10
46378;DHT22;32083;47.360;9.650;2022-10-17T16:58:49;18.10;99.50
46378;DHT22;32083;47.360;9.650;2022-10-17T17:01:21;18.00;99.50
46378;DHT22;32083;47.360;9.650;2022-10-17T17:03:48;17.90;99.50
46378;DHT22;32083;47.360;9.650;2022-10-17T17:06:19;17.90;99.90
46378;DHT22;32083;47.360;9.650;2022-10-17T17:08:46;17.90;99.70
46378;DHT22;32083;47.360;9.650;2022-10-17T17:11:14;17.80;99.80
46378;DHT22;32083;47.360;9.650;2022-10-17T17:13:40;17.70;99.70
46378;DHT22;32083;47.360;9.650;2022-10-17T17:18:35;17.60;99.90
46378;DHT22;32083;47.360;9.650;2022-10-17T17:21:03;17.50;99.90
46378;DHT22;32083;47.360;9.650;2022-10-17T17:23:29;17.40;99.90
46378;DHT22;32083;47.360;9.650;2022-10-17T17:25:58;17.40;99.90
46378;DHT22;32083;47.360;9.650;2022-10-17T17:28:24;17.30;99.90
46378;DHT22;32083;47.360;9.650;2022-10-17T17:30:51;17.30;99.90
46378;DHT22;32083;47.360;9.650;2022-10-17T17:33:17;17.20;99.90
46378;DHT22;32083;47.360;9.650;2022-10-17T17:35:43;17.20;99.90
46378;DHT22;32083;47.360;9.650;2022-10-17T17:38:10;17.10;99.90
46378;DHT22;32083;47.360;9.650;2022-10-17T17:40:36;17.10;99.90
46378;DHT22;32083;47.360;9.650;2022-10-17T17:43:02;17.10;99.90
46378;DHT22;32083;47.360;9.650;2022-10-17T17:45:28;17.00;99.90
46378;DHT22;32083;47.360;9.650;2022-10-17T17:47:54;17.00;99.90
46378;DHT22;32083;47.360;9.650;2022-10-17T17:50:20;17.00;99.90
46378;DHT22;32083;47.360;9.650;2022-10-17T17:52:45;16.90;99.90
46378;DHT22;32083;47.360;9.650;2022-10-17T17:55:15;16.90;99.90
46378;DHT22;32083;47.360;9.650;2022-10-17T17:57:41;16.80;99.90
46378;DHT22;32083;47.360;9.650;2022-10-17T18:00:07;16.70;99.90
46378;DHT22;32083;47.360;9.650;2022-10-17T18:02:33;16.70;99.90
46378;DHT22;32083;47.360;9.650;2022-10-17T18:05:00;16.60;99.90
46378;DHT22;32083;47.360;9.650;2022-10-17T18:07:26;16.60;99.90
46378;DHT22;32083;47.360;9.650;2022-10-17T18:09:52;16.50;99.90
46378;DHT22;32083;47.360;9.650;2022-10-17T18:12:18;16.50;99.90
46378;DHT22;32083;47.360;9.650;2022-10-17T18:14:44;16.40;99.90
46378;DHT22;32083;47.360;9.650;2022-10-17T18:17:10;16.40;99.90
46378;DHT22;32083;47.360;9.650;2022-10-17T18:19:36;16.30;99.90
46378;DHT22;32083;47.360;9.650;2022-10-17T18:22:02;16.30;99.90
46378;DHT22;32083;47.360;9.650;2022-10-17T18:24:28;16.30;99.90
46378;DHT22;32083;47.360;9.650;2022-10-17T18:26:55;16.10;99.90
46378;DHT22;32083;47.360;9.650;2022-10-17T18:29:25;16.10;99.90
46378;DHT22;32083;47.360;9.650;2022-10-17T18:31:51;16.10;99.90
46378;DHT22;32083;47.360;9.650;2022-10-17T18:34:17;16.00;99.90
46378;DHT22;32083;47.360;9.650;2022-10-17T18:36:43;15.90;99.90
46378;DHT22;32083;47.360;9.650;2022-10-17T18:39:09;15.90;99.90
46378;DHT22;32083;47.360;9.650;2022-10-17T18:41:36;15.80;99.90
46378;DHT22;32083;47.360;9.650;2022-10-17T18:44:02;15.80;99.90
46378;DHT22;32083;47.360;9.650;2022-10-17T18:46:32;15.80;99.90
46378;DHT22;32083;47.360;9.650;2022-10-17T18:49:01;15.80;99.90
46378;DHT22;32083;47.360;9.650;2022-10-17T18:51:27;15.70;99.90
46378;DHT22;32083;47.360;9.650;2022-10-17T18:53:55;15.70;99.90
46378;DHT22;32083;47.360;9.650;2022-10-17T18:56:23;15.60;99.90
46378;DHT22;32083;47.360;9.650;2022-10-17T18:58:50;15.60;99.90
46378;DHT22;32083;47.360;9.650;2022-10-17T19:01:21;15.60;99.90
46378;DHT22;32083;47.360;9.650;2022-10-17T19:03:49;15.60;99.90
46378;DHT22;32083;47.360;9.650;2022-10-17T19:06:17;15.50;99.90
46378;DHT22;32083;47.360;9.650;2022-10-17T19:08:44;15.40;99.90
46378;DHT22;32083;47.360;9.650;2022-10-17T19:11:18;15.40;99.90
46378;DHT22;32083;47.360;9.650;2022-10-17T19:13:45;15.40;99.90
46378;DHT22;32083;47.360;9.650;2022-10-17T19:16:15;15.30;99.90
46378;DHT22;32083;47.360;9.650;2022-10-17T19:18:41;15.20;99.90
46378;DHT22;32083;47.360;9.650;2022-10-17T19:21:09;15.30;99.90
46378;DHT22;32083;47.360;9.650;2022-10-17T19:23:36;15.20;99.90
46378;DHT22;32083;47.360;9.650;2022-10-17T19:26:08;15.30;99.90
46378;DHT22;32083;47.360;9.650;2022-10-17T19:28:36;15.30;99.90
46378;DHT22;32083;47.360;9.650;2022-10-17T19:31:03;15.20;99.90
46378;DHT22;32083;47.360;9.650;2022-10-17T19:33:30;15.10;99.90
46378;DHT22;32083;47.360;9.650;2022-10-17T19:35:59;15.00;99.90
46378;DHT22;32083;47.360;9.650;2022-10-17T19:38:25;14.90;99.90
46378;DHT22;32083;47.360;9.650;2022-10-17T19:40:51;14.90;99.90
46378;DHT22;32083;47.360;9.650;2022-10-17T19:43:18;15.00;99.90
46378;DHT22;32083;47.360;9.650;2022-10-17T19:45:54;15.00;99.90
46378;DHT22;32083;47.360;9.650;2022-10-17T19:48:20;14.90;99.90
46378;DHT22;32083;47.360;9.650;2022-10-17T19:50:46;14.80;99.90
46378;DHT22;32083;47.360;9.650;2022-10-17T19:53:12;14.80;99.90
46378;DHT22;32083;47.360;9.650;2022-10-17T19:55:38;14.80;99.90
46378;DHT22;32083;47.360;9.650;2022-10-17T19:58:04;14.70;99.90
46378;DHT22;32083;47.360;9.650;2022-10-17T20:00:29;14.80;99.90
46378;DHT22;32083;47.360;9.650;2022-10-17T20:02:56;14.70;99.90
46378;DHT22;32083;47.360;9.650;2022-10-17T20:05:22;14.60;99.90
46378;DHT22;32083;47.360;9.650;2022-10-17T20:07:48;14.70;99.90